createdAt,value
2018-11-05T00:01:56.959Z,8.05
2018-11-05T00:04:31.619Z,8.23
2018-11-05T00:07:06.973Z,7.92
2018-11-05T00:09:41.517Z,8.58
2018-11-05T00:12:16.036Z,7.92
2018-11-05T00:14:50.581Z,6.85
2018-11-05T00:17:24.915Z,7.75
2018-11-05T00:19:59.399Z,7.30
2018-11-05T00:22:34.030Z,7.05
2018-11-05T00:25:11.342Z,7.42
2018-11-05T00:27:45.829Z,9.15
2018-11-05T00:30:20.334Z,6.42
2018-11-05T00:32:55.084Z,6.80
2018-11-05T00:35:29.546Z,5.70
2018-11-05T00:38:04.248Z,8.50
2018-11-05T00:40:38.786Z,8.78
2018-11-05T00:43:13.393Z,8.45
2018-11-05T00:45:48.125Z,7.50
2018-11-05T00:48:22.517Z,6.17
2018-11-05T00:50:57.029Z,7.00
2018-11-05T00:53:31.424Z,6.20
2018-11-05T00:56:05.967Z,6.33
2018-11-05T00:58:40.551Z,6.90
2018-11-05T01:01:15.326Z,6.12
2018-11-05T01:03:49.738Z,5.83
2018-11-05T01:06:24.487Z,5.90
2018-11-05T01:08:59.057Z,5.20
2018-11-05T01:11:33.498Z,5.80
2018-11-05T01:14:08.421Z,5.97
2018-11-05T01:16:42.818Z,6.80
2018-11-05T01:19:17.247Z,6.12
2018-11-05T01:21:51.532Z,7.10
2018-11-05T01:24:26.213Z,7.00
2018-11-05T01:27:00.617Z,7.45
2018-11-05T01:29:35.204Z,7.00
2018-11-05T01:32:09.433Z,6.28
2018-11-05T01:34:43.793Z,6.42
2018-11-05T01:37:18.350Z,6.17
2018-11-05T01:39:52.853Z,5.80
2018-11-05T01:42:27.376Z,6.80
2018-11-05T01:45:01.765Z,6.85
2018-11-05T01:47:36.378Z,6.60
2018-11-05T01:50:12.673Z,6.45
2018-11-05T01:52:46.952Z,6.10
2018-11-05T01:55:21.395Z,6.65
2018-11-05T01:57:55.862Z,6.37
2018-11-05T02:00:30.349Z,6.87
2018-11-05T02:03:05.205Z,8.03
2018-11-05T02:05:39.760Z,7.60
2018-11-05T02:08:14.423Z,7.85
2018-11-05T02:10:48.752Z,7.45
2018-11-05T02:13:23.401Z,6.42
2018-11-05T02:15:58.115Z,6.37
2018-11-05T02:18:32.742Z,5.55
2018-11-05T02:21:07.288Z,6.60
2018-11-05T02:23:42.126Z,5.30
2018-11-05T02:26:16.897Z,6.28
2018-11-05T02:28:51.427Z,6.22
2018-11-05T02:31:26.116Z,6.53
2018-11-05T02:34:00.835Z,6.87
2018-11-05T02:36:35.270Z,8.78
2018-11-05T02:39:10.463Z,7.25
2018-11-05T02:41:44.913Z,7.20
2018-11-05T02:44:19.389Z,5.65
2018-11-05T02:46:54.140Z,5.20
2018-11-05T02:49:28.902Z,6.50
2018-11-05T02:52:03.647Z,5.92
2018-11-05T02:54:38.325Z,5.85
2018-11-05T02:57:12.994Z,5.03
2018-11-05T02:59:47.682Z,5.37
2018-11-05T03:02:22.380Z,5.53
2018-11-05T03:04:57.077Z,6.03
2018-11-05T03:07:31.605Z,5.65
2018-11-05T03:10:07.090Z,5.25
2018-11-05T03:12:42.105Z,5.25
2018-11-05T03:15:17.870Z,4.58
2018-11-05T03:17:52.448Z,5.35
2018-11-05T03:20:26.955Z,5.25
2018-11-05T03:23:01.600Z,4.95
2018-11-05T03:25:36.277Z,5.15
2018-11-05T03:28:10.953Z,4.85
2018-11-05T03:30:45.527Z,4.90
2018-11-05T03:33:20.122Z,4.80
2018-11-05T03:35:54.590Z,4.78
2018-11-05T03:38:29.267Z,5.50
2018-11-05T03:41:03.701Z,5.37
2018-11-05T03:43:38.455Z,6.17
2018-11-05T03:46:13.162Z,7.35
2018-11-05T03:48:47.678Z,12.37
2018-11-05T03:51:22.188Z,9.75
2018-11-05T03:53:56.778Z,7.20
2018-11-05T03:56:31.600Z,6.85
2018-11-05T03:59:06.151Z,6.35
2018-11-05T04:01:40.602Z,6.50
2018-11-05T04:04:15.044Z,4.85
2018-11-05T04:06:49.664Z,5.40
2018-11-05T04:09:24.286Z,5.58
2018-11-05T04:11:59.404Z,5.85
2018-11-05T04:14:33.945Z,5.28
2018-11-05T04:17:08.556Z,4.80
2018-11-05T04:19:43.026Z,4.90
2018-11-05T04:22:17.505Z,4.90
2018-11-05T04:24:52.216Z,4.40
2018-11-05T04:27:26.829Z,4.70
2018-11-05T04:30:01.264Z,4.47
2018-11-05T04:32:36.005Z,4.33
2018-11-05T04:35:11.014Z,5.70
2018-11-05T04:37:45.783Z,4.62
2018-11-05T04:40:20.569Z,4.30
2018-11-05T04:42:55.158Z,4.22
2018-11-05T04:45:29.638Z,4.33
2018-11-05T04:48:04.193Z,4.40
2018-11-05T04:50:38.572Z,4.50
2018-11-05T04:53:13.099Z,5.00
2018-11-05T04:55:47.729Z,4.65
2018-11-05T04:58:22.205Z,4.20
2018-11-05T05:00:56.807Z,4.58
2018-11-05T05:03:31.511Z,4.20
2018-11-05T05:06:06.279Z,5.15
2018-11-05T05:08:40.867Z,5.30
2018-11-05T05:11:15.257Z,4.50
2018-11-05T05:13:49.978Z,5.00
2018-11-05T05:16:24.533Z,5.10
2018-11-05T05:18:59.147Z,4.85
2018-11-05T05:21:33.665Z,4.83
2018-11-05T05:24:07.933Z,4.72
2018-11-05T05:26:42.359Z,5.08
2018-11-05T05:29:16.946Z,4.47
2018-11-05T05:31:51.552Z,4.67
2018-11-05T05:34:26.225Z,5.05
2018-11-05T05:37:00.641Z,8.08
2018-11-05T05:39:35.080Z,6.15
2018-11-05T05:42:09.858Z,4.72
2018-11-05T05:44:44.376Z,5.20
2018-11-05T05:47:18.839Z,4.70
2018-11-05T05:49:53.324Z,7.00
2018-11-05T05:52:27.860Z,8.68
2018-11-05T05:55:02.463Z,5.25
2018-11-05T05:57:37.783Z,5.58
2018-11-05T06:00:14.961Z,5.50
2018-11-05T06:02:49.444Z,5.10
2018-11-05T06:05:23.834Z,5.30
2018-11-05T06:07:58.452Z,4.90
2018-11-05T06:10:32.953Z,5.50
2018-11-05T06:13:07.624Z,5.60
2018-11-05T06:15:42.198Z,6.00
2018-11-05T06:18:16.680Z,7.12
2018-11-05T06:20:51.317Z,6.60
2018-11-05T06:23:25.813Z,5.78
2018-11-05T06:26:00.590Z,5.60
2018-11-05T06:28:35.306Z,6.08
2018-11-05T06:31:10.044Z,5.25
2018-11-05T06:33:44.736Z,5.85
2018-11-05T06:36:19.659Z,5.50
2018-11-05T06:38:54.293Z,6.22
2018-11-05T06:41:29.474Z,6.37
2018-11-05T06:44:04.062Z,6.75
2018-11-05T06:46:38.659Z,4.85
2018-11-05T06:49:13.374Z,6.45
2018-11-05T06:51:47.929Z,6.33
2018-11-05T06:54:22.916Z,6.10
2018-11-05T06:56:57.726Z,5.80
2018-11-05T06:59:32.180Z,4.90
2018-11-05T07:02:06.878Z,5.70
2018-11-05T07:04:41.463Z,5.50
2018-11-05T07:07:15.832Z,5.50
2018-11-05T07:09:50.606Z,6.72
2018-11-05T07:12:25.158Z,6.95
2018-11-05T07:14:59.845Z,5.87
2018-11-05T07:17:34.476Z,5.08
2018-11-05T07:20:11.222Z,5.30
2018-11-05T07:22:46.505Z,4.65
2018-11-05T07:25:21.205Z,6.03
2018-11-05T07:27:55.966Z,4.95
2018-11-05T07:30:30.456Z,4.50
2018-11-05T07:33:05.458Z,5.22
2018-11-05T07:35:39.899Z,5.80
2018-11-05T07:38:14.302Z,5.60
2018-11-05T07:40:48.672Z,6.72
2018-11-05T07:43:23.300Z,8.80
2018-11-05T07:45:57.796Z,6.12
2018-11-05T07:48:32.440Z,8.05
2018-11-05T07:51:06.960Z,8.50
2018-11-05T07:53:41.449Z,12.07
2018-11-05T07:56:15.899Z,7.12
2018-11-05T07:58:50.554Z,7.33
2018-11-05T08:01:25.250Z,5.97
2018-11-05T08:03:59.966Z,7.17
2018-11-05T08:06:34.633Z,6.78
2018-11-05T08:09:11.083Z,7.10
2018-11-05T08:11:45.719Z,7.80
2018-11-05T08:14:20.359Z,6.58
2018-11-05T08:16:54.870Z,6.00
2018-11-05T08:19:29.671Z,6.30
2018-11-05T08:22:04.222Z,5.65
2018-11-05T08:24:38.694Z,7.50
2018-11-05T08:27:13.269Z,7.50
2018-11-05T08:29:47.649Z,7.08
2018-11-05T08:32:22.107Z,8.60
2018-11-05T08:34:56.553Z,11.40
2018-11-05T08:37:31.198Z,11.05
2018-11-05T08:40:09.517Z,9.23
2018-11-05T08:42:45.007Z,7.87
2018-11-05T08:45:21.645Z,6.00
2018-11-05T08:47:56.169Z,4.90
2018-11-05T08:50:30.873Z,4.53
2018-11-05T08:53:05.664Z,7.25
2018-11-05T08:55:40.100Z,8.05
2018-11-05T08:58:14.833Z,4.33
2018-11-05T09:00:56.284Z,5.17
2018-11-05T09:03:30.853Z,4.85
2018-11-05T09:08:46.039Z,5.70
2018-11-05T09:11:20.957Z,5.75
2018-11-05T09:13:55.079Z,5.30
2018-11-05T09:16:29.938Z,3.60
2018-11-05T09:19:04.336Z,3.40
2018-11-05T09:21:38.910Z,3.37
2018-11-05T09:24:13.265Z,2.92
2018-11-05T09:26:47.673Z,4.50
2018-11-05T09:29:22.248Z,2.22
2018-11-05T09:31:56.647Z,3.65
2018-11-05T09:34:31.049Z,3.00
2018-11-05T09:37:05.705Z,3.15
2018-11-05T09:39:39.972Z,2.83
2018-11-05T09:42:14.357Z,2.92
2018-11-05T09:44:48.596Z,3.27
2018-11-05T09:47:23.094Z,3.25
2018-11-05T09:49:57.510Z,4.10
2018-11-05T09:52:32.140Z,2.70
2018-11-05T09:55:06.955Z,3.33
2018-11-05T09:57:41.586Z,3.20
2018-11-05T10:00:18.102Z,3.90
2018-11-05T10:02:58.408Z,4.42
2018-11-05T10:05:32.956Z,6.50
2018-11-05T10:08:07.481Z,2.90
2018-11-05T10:10:42.058Z,3.50
2018-11-05T10:13:16.468Z,3.77
2018-11-05T10:15:51.119Z,2.52
2018-11-05T10:18:25.707Z,5.58
2018-11-05T10:21:00.264Z,4.83
2018-11-05T10:23:34.657Z,3.92
2018-11-05T10:26:09.145Z,2.55
2018-11-05T10:28:43.912Z,2.70
2018-11-05T10:31:25.111Z,2.65
2018-11-05T10:33:59.718Z,2.17
2018-11-05T10:36:34.336Z,2.45
2018-11-05T10:39:09.682Z,2.15
2018-11-05T10:41:44.116Z,2.22
2018-11-05T10:44:18.485Z,2.02
2018-11-05T10:46:52.833Z,2.42
2018-11-05T10:49:27.429Z,6.37
2018-11-05T10:52:01.877Z,3.20
2018-11-05T10:54:36.289Z,1.62
2018-11-05T10:57:11.087Z,1.55
2018-11-05T10:59:45.803Z,1.20
2018-11-05T11:02:25.842Z,1.40
2018-11-05T11:05:00.671Z,1.50
2018-11-05T11:07:35.401Z,1.62
2018-11-05T11:10:10.009Z,2.20
2018-11-05T11:12:44.730Z,1.45
2018-11-05T11:15:19.260Z,3.83
2018-11-05T11:17:54.322Z,9.68
2018-11-05T11:20:29.125Z,3.08
2018-11-05T11:23:03.434Z,1.77
2018-11-05T11:25:38.004Z,3.15
2018-11-05T11:28:12.744Z,1.25
2018-11-05T11:30:47.191Z,1.65
2018-11-05T11:33:21.837Z,1.60
2018-11-05T11:35:56.406Z,1.50
2018-11-05T11:38:31.205Z,1.90
2018-11-05T11:41:05.885Z,2.15
2018-11-05T11:43:40.443Z,1.90
2018-11-05T11:46:14.867Z,1.30
2018-11-05T11:48:49.441Z,1.95
2018-11-05T11:51:24.093Z,1.45
2018-11-05T11:53:58.540Z,1.80
2018-11-05T11:56:32.950Z,1.62
2018-11-05T11:59:07.643Z,1.17
2018-11-05T12:01:47.272Z,1.55
2018-11-05T12:04:21.700Z,1.55
2018-11-05T12:06:56.154Z,1.45
2018-11-05T12:09:30.605Z,1.37
2018-11-05T12:12:05.480Z,2.10
2018-11-05T12:14:40.220Z,1.75
2018-11-05T12:17:14.705Z,4.80
2018-11-05T12:19:49.345Z,2.98
2018-11-05T12:22:23.806Z,2.70
2018-11-05T12:24:58.545Z,1.75
2018-11-05T12:27:33.149Z,1.92
2018-11-05T12:30:13.492Z,2.17
2018-11-05T12:32:48.618Z,1.50
2018-11-05T12:35:23.283Z,1.00
2018-11-05T12:37:58.067Z,1.10
2018-11-05T12:40:32.681Z,0.98
2018-11-05T12:43:07.226Z,0.85
2018-11-05T12:45:41.859Z,1.37
2018-11-05T12:48:16.443Z,1.52
2018-11-05T12:50:50.872Z,1.10
2018-11-05T12:53:25.511Z,0.93
2018-11-05T12:55:59.965Z,0.80
2018-11-05T12:58:34.561Z,0.70
2018-11-05T13:01:09.349Z,1.20
2018-11-05T13:03:43.879Z,0.88
2018-11-05T13:06:18.554Z,0.90
2018-11-05T13:08:53.094Z,1.00
2018-11-05T13:11:27.618Z,1.07
2018-11-05T13:14:02.150Z,0.95
2018-11-05T13:16:36.599Z,0.85
2018-11-05T13:19:11.401Z,1.02
2018-11-05T13:21:46.082Z,2.35
2018-11-05T13:24:20.651Z,4.45
2018-11-05T13:26:55.168Z,2.40
2018-11-05T13:29:29.651Z,0.90
2018-11-05T13:32:04.235Z,0.80
2018-11-05T13:34:38.926Z,1.10
2018-11-05T13:37:13.705Z,1.05
2018-11-05T13:39:47.983Z,0.90
2018-11-05T13:42:22.595Z,1.20
2018-11-05T13:44:57.071Z,0.80
2018-11-05T13:47:31.952Z,0.80
2018-11-05T13:50:06.817Z,0.93
2018-11-05T13:52:41.325Z,1.67
2018-11-05T13:55:16.645Z,0.80
2018-11-05T13:57:51.155Z,0.90
2018-11-05T14:00:25.613Z,1.00
2018-11-05T14:03:00.113Z,1.30
2018-11-05T14:05:34.941Z,1.12
2018-11-05T14:08:09.508Z,0.95
2018-11-05T14:10:44.229Z,1.02
2018-11-05T14:13:18.861Z,0.90
2018-11-05T14:15:53.586Z,1.05
2018-11-05T14:18:28.121Z,2.50
2018-11-05T14:21:02.821Z,1.22
2018-11-05T14:23:37.269Z,5.30
2018-11-05T14:26:11.643Z,5.65
2018-11-05T14:28:46.580Z,1.75
2018-11-05T14:31:20.859Z,1.67
2018-11-05T14:33:55.289Z,2.12
2018-11-05T14:36:29.833Z,1.32
2018-11-05T14:39:06.526Z,0.90
2018-11-05T14:41:41.832Z,0.80
2018-11-05T14:44:16.574Z,0.80
2018-11-05T14:46:51.224Z,1.00
2018-11-05T14:49:25.920Z,1.25
2018-11-05T14:52:00.505Z,1.10
2018-11-05T14:54:35.229Z,0.80
2018-11-05T14:57:10.008Z,1.90
2018-11-05T14:59:44.641Z,1.00
2018-11-05T15:02:24.525Z,0.95
2018-11-05T15:04:59.118Z,1.12
2018-11-05T15:07:33.749Z,1.10
2018-11-05T15:10:11.032Z,1.30
2018-11-05T15:12:45.567Z,1.00
2018-11-05T15:15:20.765Z,1.15
2018-11-05T15:17:55.134Z,2.47
2018-11-05T15:20:29.541Z,1.15
2018-11-05T15:23:03.937Z,3.35
2018-11-05T15:25:38.644Z,5.53
2018-11-05T15:28:13.234Z,1.50
2018-11-05T15:30:47.891Z,2.33
2018-11-05T15:33:22.487Z,1.20
2018-11-05T15:35:56.955Z,0.90
2018-11-05T15:38:31.501Z,3.17
2018-11-05T15:41:06.199Z,2.22
2018-11-05T15:43:40.917Z,2.02
2018-11-05T15:46:15.741Z,1.52
2018-11-05T15:48:50.264Z,1.92
2018-11-05T15:51:25.176Z,1.10
2018-11-05T15:53:59.708Z,0.98
2018-11-05T15:56:34.239Z,0.90
2018-11-05T15:59:08.619Z,0.90
2018-11-05T16:01:43.199Z,0.95
2018-11-05T16:04:17.749Z,1.20
2018-11-05T16:06:52.175Z,1.05
2018-11-05T16:09:26.747Z,1.37
2018-11-05T16:12:01.583Z,0.88
2018-11-05T16:14:36.439Z,1.47
2018-11-05T16:17:11.156Z,1.32
2018-11-05T16:19:45.857Z,1.42
2018-11-05T16:22:20.290Z,2.80
2018-11-05T16:24:54.848Z,2.50
2018-11-05T16:27:29.513Z,2.25
2018-11-05T16:30:04.028Z,3.75
2018-11-05T16:32:38.517Z,1.60
2018-11-05T16:35:13.224Z,1.20
2018-11-05T16:37:47.676Z,1.50
2018-11-05T16:40:22.191Z,1.57
2018-11-05T16:42:56.746Z,2.30
2018-11-05T16:45:31.238Z,1.75
2018-11-05T16:48:05.594Z,1.20
2018-11-05T16:50:40.174Z,1.40
2018-11-05T16:53:14.510Z,1.20
2018-11-05T16:55:48.951Z,1.20
2018-11-05T16:58:23.332Z,1.30
2018-11-05T17:00:57.982Z,1.37
2018-11-05T17:03:32.543Z,2.65
2018-11-05T17:06:06.738Z,1.55
2018-11-05T17:08:41.395Z,4.10
2018-11-05T17:11:15.799Z,1.40
2018-11-05T17:13:50.394Z,1.42
2018-11-05T17:16:24.945Z,1.90
2018-11-05T17:18:59.303Z,2.10
2018-11-05T17:21:33.826Z,2.55
2018-11-05T17:24:08.369Z,2.80
2018-11-05T17:26:42.883Z,3.02
2018-11-05T17:29:17.599Z,5.37
2018-11-05T17:31:52.047Z,2.90
2018-11-05T17:34:26.678Z,5.62
2018-11-05T17:37:01.379Z,3.35
2018-11-05T17:39:35.749Z,1.70
2018-11-05T17:42:10.264Z,2.60
2018-11-05T17:44:44.852Z,2.20
2018-11-05T17:47:19.410Z,2.10
2018-11-05T17:49:54.117Z,2.10
2018-11-05T17:52:28.386Z,2.30
2018-11-05T17:55:02.980Z,1.60
2018-11-05T17:57:37.552Z,2.77
2018-11-05T18:00:15.412Z,2.00
2018-11-05T18:02:50.030Z,1.70
2018-11-05T18:05:24.634Z,2.50
2018-11-05T18:07:59.219Z,2.05
2018-11-05T18:10:33.689Z,1.30
2018-11-05T18:13:08.171Z,2.62
2018-11-05T18:15:42.649Z,2.47
2018-11-05T18:18:17.272Z,2.10
2018-11-05T18:20:52.747Z,2.72
2018-11-05T18:23:27.201Z,2.95
2018-11-05T18:26:01.714Z,5.50
2018-11-05T18:28:36.332Z,2.40
2018-11-05T18:31:10.694Z,2.40
2018-11-05T18:33:45.099Z,10.55
2018-11-05T18:36:19.520Z,47.48
2018-11-05T18:38:53.948Z,26.33
2018-11-05T18:41:28.400Z,12.55
2018-11-05T18:44:02.833Z,19.37
2018-11-05T18:46:37.099Z,15.25
2018-11-05T18:49:11.637Z,36.20
2018-11-05T18:51:46.262Z,56.85
2018-11-05T18:54:20.674Z,44.83
2018-11-05T18:56:55.250Z,73.42
2018-11-05T18:59:29.500Z,14.83
2018-11-05T19:02:04.157Z,10.80
2018-11-05T19:04:38.647Z,41.95
2018-11-05T19:07:13.049Z,17.60
2018-11-05T19:09:47.559Z,57.40
2018-11-05T19:12:22.217Z,31.68
2018-11-05T19:14:57.098Z,7.87
2018-11-05T19:17:31.507Z,6.15
2018-11-05T19:20:06.808Z,7.55
2018-11-05T19:22:42.048Z,3.45
2018-11-05T19:25:16.990Z,4.83
2018-11-05T19:27:51.460Z,4.50
2018-11-05T19:30:27.981Z,6.17
2018-11-05T19:33:02.408Z,13.22
2018-11-05T19:35:37.100Z,25.40
2018-11-05T19:38:12.754Z,14.18
2018-11-05T19:40:47.338Z,13.00
2018-11-05T19:43:21.774Z,10.58
2018-11-05T19:45:56.277Z,5.30
2018-11-05T19:48:30.756Z,2.65
2018-11-05T19:51:05.582Z,7.25
2018-11-05T19:53:39.956Z,5.45
2018-11-05T19:56:14.467Z,21.17
2018-11-05T19:58:48.740Z,11.57
2018-11-05T20:01:23.669Z,4.97
2018-11-05T20:03:58.263Z,3.70
2018-11-05T20:06:32.932Z,4.55
2018-11-05T20:09:08.015Z,3.45
2018-11-05T20:11:42.436Z,3.62
2018-11-05T20:14:16.821Z,3.02
2018-11-05T20:16:51.313Z,5.00
2018-11-05T20:19:25.924Z,3.45
2018-11-05T20:22:00.250Z,3.42
2018-11-05T20:24:34.737Z,3.60
2018-11-05T20:27:09.251Z,2.90
2018-11-05T20:29:43.785Z,6.70
2018-11-05T20:32:18.793Z,6.28
2018-11-05T20:34:52.827Z,3.00
2018-11-05T20:37:27.454Z,3.35
2018-11-05T20:40:02.092Z,5.97
2018-11-05T20:42:36.484Z,3.45
2018-11-05T20:45:11.134Z,6.78
2018-11-05T20:47:46.048Z,8.00
2018-11-05T20:50:20.608Z,3.37
2018-11-05T20:52:55.208Z,2.25
2018-11-05T20:55:29.838Z,2.22
2018-11-05T20:58:04.060Z,2.50
2018-11-05T21:00:38.722Z,2.72
2018-11-05T21:03:13.216Z,2.50
2018-11-05T21:05:47.530Z,2.92
2018-11-05T21:08:22.099Z,2.27
2018-11-05T21:10:56.577Z,2.17
2018-11-05T21:13:31.357Z,2.40
2018-11-05T21:16:06.162Z,2.05
2018-11-05T21:18:40.981Z,3.40
2018-11-05T21:21:15.631Z,4.05
2018-11-05T21:23:50.077Z,2.87
2018-11-05T21:26:24.636Z,4.05
2018-11-05T21:28:59.048Z,4.30
2018-11-05T21:31:33.499Z,5.22
2018-11-05T21:34:08.057Z,4.53
2018-11-05T21:36:42.544Z,2.90
2018-11-05T21:39:17.065Z,2.77
2018-11-05T21:41:51.735Z,1.90
2018-11-05T21:44:26.022Z,2.75
2018-11-05T21:47:00.532Z,15.18
2018-11-05T21:49:35.448Z,13.78
2018-11-05T21:52:09.997Z,8.55
2018-11-05T21:54:44.535Z,2.47
2018-11-05T21:57:19.118Z,1.60
2018-11-05T21:59:53.528Z,2.02
2018-11-05T22:02:27.994Z,1.20
2018-11-05T22:05:02.670Z,1.55
2018-11-05T22:07:37.356Z,1.80
2018-11-05T22:10:12.893Z,1.15
2018-11-05T22:12:48.109Z,1.27
2018-11-05T22:15:22.867Z,1.10
2018-11-05T22:17:57.741Z,1.00
2018-11-05T22:20:32.297Z,0.98
2018-11-05T22:23:07.206Z,1.07
2018-11-05T22:25:41.732Z,0.93
2018-11-05T22:28:16.143Z,1.17
2018-11-05T22:30:50.594Z,1.10
2018-11-05T22:33:25.291Z,1.05
2018-11-05T22:35:59.717Z,1.40
2018-11-05T22:38:34.216Z,1.40
2018-11-05T22:41:08.795Z,1.00
2018-11-05T22:43:43.557Z,1.00
2018-11-05T22:46:18.255Z,1.20
2018-11-05T22:48:52.922Z,2.50
2018-11-05T22:51:27.464Z,6.42
2018-11-05T22:54:01.846Z,3.95
2018-11-05T22:56:36.331Z,1.95
2018-11-05T22:59:10.885Z,1.20
2018-11-05T23:01:50.755Z,1.22
2018-11-05T23:04:25.029Z,1.10
2018-11-05T23:06:59.425Z,1.15
2018-11-05T23:09:33.864Z,1.00
2018-11-05T23:12:08.392Z,1.00
2018-11-05T23:14:42.862Z,1.35
2018-11-05T23:17:17.352Z,1.00
2018-11-05T23:19:51.713Z,0.90
2018-11-05T23:22:26.236Z,1.55
2018-11-05T23:25:00.752Z,1.67
2018-11-05T23:27:35.472Z,1.22
2018-11-05T23:30:11.334Z,1.40
2018-11-05T23:32:45.710Z,1.72
2018-11-05T23:35:20.393Z,1.05
2018-11-05T23:37:54.831Z,1.20
2018-11-05T23:40:29.332Z,1.10
2018-11-05T23:43:04.045Z,1.90
2018-11-05T23:45:38.556Z,1.67
2018-11-05T23:48:13.104Z,2.50
2018-11-05T23:50:47.737Z,4.60
2018-11-05T23:53:22.136Z,3.45
2018-11-05T23:55:56.592Z,2.35
2018-11-05T23:58:31.197Z,2.40
